sensor_id;sensor_type;location;lat;lon;timestamp;P1;durP1;ratioP1;P2;durP2;ratioP2
16113;SDS011;8161;-33.910;151.156;2023-05-18T00:00:23;3.10;;;1.00;;
16113;SDS011;8161;-33.910;151.156;2023-05-18T00:02:50;3.25;;;1.13;;
16113;SDS011;8161;-33.910;151.156;2023-05-18T00:05:17;4.82;;;1.20;;
16113;SDS011;8161;-33.910;151.156;2023-05-18T00:07:48;3.92;;;1.00;;
16113;SDS011;8161;-33.910;151.156;2023-05-18T00:10:16;3.88;;;1.10;;
16113;SDS011;8161;-33.910;151.156;2023-05-18T00:12:43;5.25;;;1.00;;
16113;SDS011;8161;-33.910;151.156;2023-05-18T00:15:10;4.95;;;0.93;;
16113;SDS011;8161;-33.910;151.156;2023-05-18T00:17:37;3.00;;;0.90;;
16113;SDS011;8161;-33.910;151.156;2023-05-18T00:20:05;5.88;;;1.25;;
16113;SDS011;8161;-33.910;151.156;2023-05-18T00:22:34;3.97;;;1.50;;
16113;SDS011;8161;-33.910;151.156;2023-05-18T00:25:03;5.93;;;1.13;;
16113;SDS011;8161;-33.910;151.156;2023-05-18T00:27:31;4.55;;;1.45;;
16113;SDS011;8161;-33.910;151.156;2023-05-18T00:29:58;4.60;;;1.20;;
16113;SDS011;8161;-33.910;151.156;2023-05-18T00:32:25;3.85;;;0.80;;
16113;SDS011;8161;-33.910;151.156;2023-05-18T00:34:52;3.63;;;0.90;;
16113;SDS011;8161;-33.910;151.156;2023-05-18T00:37:20;3.05;;;1.20;;
16113;SDS011;8161;-33.910;151.156;2023-05-18T00:39:47;3.47;;;1.00;;
16113;SDS011;8161;-33.910;151.156;2023-05-18T00:42:14;5.63;;;1.08;;
16113;SDS011;8161;-33.910;151.156;2023-05-18T00:44:41;7.05;;;1.15;;
16113;SDS011;8161;-33.910;151.156;2023-05-18T00:47:08;5.20;;;0.90;;
16113;SDS011;8161;-33.910;151.156;2023-05-18T00:49:36;3.55;;;1.10;;
16113;SDS011;8161;-33.910;151.156;2023-05-18T00:52:03;4.25;;;0.98;;
16113;SDS011;8161;-33.910;151.156;2023-05-18T00:54:31;4.75;;;1.30;;
16113;SDS011;8161;-33.910;151.156;2023-05-18T00:56:59;4.88;;;0.93;;
16113;SDS011;8161;-33.910;151.156;2023-05-18T00:59:30;5.43;;;1.70;;
16113;SDS011;8161;-33.910;151.156;2023-05-18T01:01:59;8.80;;;1.38;;
16113;SDS011;8161;-33.910;151.156;2023-05-18T01:04:28;3.55;;;0.90;;
16113;SDS011;8161;-33.910;151.156;2023-05-18T01:06:56;3.20;;;0.80;;
16113;SDS011;8161;-33.910;151.156;2023-05-18T01:09:31;3.80;;;0.93;;
16113;SDS011;8161;-33.910;151.156;2023-05-18T01:20:04;3.58;;;1.20;;
16113;SDS011;8161;-33.910;151.156;2023-05-18T01:27:54;4.10;;;0.95;;
16113;SDS011;8161;-33.910;151.156;2023-05-18T01:30:21;5.50;;;1.33;;
16113;SDS011;8161;-33.910;151.156;2023-05-18T01:32:49;3.08;;;1.42;;
16113;SDS011;8161;-33.910;151.156;2023-05-18T01:35:16;5.95;;;1.27;;
16113;SDS011;8161;-33.910;151.156;2023-05-18T01:37:43;3.83;;;1.30;;
16113;SDS011;8161;-33.910;151.156;2023-05-18T01:40:11;3.55;;;0.75;;
16113;SDS011;8161;-33.910;151.156;2023-05-18T01:42:43;2.30;;;0.90;;
16113;SDS011;8161;-33.910;151.156;2023-05-18T01:45:20;7.13;;;1.20;;
16113;SDS011;8161;-33.910;151.156;2023-05-18T01:47:50;4.10;;;0.93;;
16113;SDS011;8161;-33.910;151.156;2023-05-18T01:50:32;3.92;;;0.70;;
16113;SDS011;8161;-33.910;151.156;2023-05-18T01:53:08;3.72;;;0.90;;
16113;SDS011;8161;-33.910;151.156;2023-05-18T01:55:39;5.80;;;0.88;;
16113;SDS011;8161;-33.910;151.156;2023-05-18T01:58:07;3.85;;;0.70;;
16113;SDS011;8161;-33.910;151.156;2023-05-18T02:00:36;3.92;;;0.90;;
16113;SDS011;8161;-33.910;151.156;2023-05-18T02:03:03;3.50;;;0.90;;
16113;SDS011;8161;-33.910;151.156;2023-05-18T02:05:31;2.78;;;1.00;;
16113;SDS011;8161;-33.910;151.156;2023-05-18T02:07:58;4.95;;;1.05;;
16113;SDS011;8161;-33.910;151.156;2023-05-18T02:10:25;5.65;;;0.90;;
16113;SDS011;8161;-33.910;151.156;2023-05-18T02:12:52;8.23;;;1.60;;
16113;SDS011;8161;-33.910;151.156;2023-05-18T02:15:20;3.80;;;1.20;;
16113;SDS011;8161;-33.910;151.156;2023-05-18T02:17:47;2.92;;;1.10;;
16113;SDS011;8161;-33.910;151.156;2023-05-18T02:20:14;2.95;;;0.73;;
16113;SDS011;8161;-33.910;151.156;2023-05-18T02:22:43;6.22;;;0.90;;
16113;SDS011;8161;-33.910;151.156;2023-05-18T02:25:10;3.65;;;0.93;;
16113;SDS011;8161;-33.910;151.156;2023-05-18T02:27:38;3.88;;;0.95;;
16113;SDS011;8161;-33.910;151.156;2023-05-18T02:30:05;4.30;;;1.20;;
16113;SDS011;8161;-33.910;151.156;2023-05-18T02:32:36;6.47;;;1.60;;
16113;SDS011;8161;-33.910;151.156;2023-05-18T02:35:06;4.53;;;1.00;;
16113;SDS011;8161;-33.910;151.156;2023-05-18T02:37:34;2.75;;;0.63;;
16113;SDS011;8161;-33.910;151.156;2023-05-18T02:40:09;2.70;;;0.80;;
16113;SDS011;8161;-33.910;151.156;2023-05-18T02:42:43;3.58;;;1.23;;
16113;SDS011;8161;-33.910;151.156;2023-05-18T02:45:11;3.72;;;0.82;;
16113;SDS011;8161;-33.910;151.156;2023-05-18T02:47:38;3.83;;;0.93;;
16113;SDS011;8161;-33.910;151.156;2023-05-18T02:50:09;8.10;;;1.05;;
16113;SDS011;8161;-33.910;151.156;2023-05-18T02:52:40;3.90;;;1.08;;
16113;SDS011;8161;-33.910;151.156;2023-05-18T02:55:09;5.47;;;1.00;;
16113;SDS011;8161;-33.910;151.156;2023-05-18T02:57:38;4.03;;;0.90;;
16113;SDS011;8161;-33.910;151.156;2023-05-18T03:00:12;5.53;;;1.30;;
16113;SDS011;8161;-33.910;151.156;2023-05-18T03:02:41;4.10;;;0.90;;
16113;SDS011;8161;-33.910;151.156;2023-05-18T03:05:08;5.05;;;1.20;;
16113;SDS011;8161;-33.910;151.156;2023-05-18T03:07:38;3.38;;;0.98;;
16113;SDS011;8161;-33.910;151.156;2023-05-18T03:10:06;4.65;;;1.10;;
16113;SDS011;8161;-33.910;151.156;2023-05-18T03:12:34;5.45;;;1.25;;
16113;SDS011;8161;-33.910;151.156;2023-05-18T03:15:01;5.15;;;0.95;;
16113;SDS011;8161;-33.910;151.156;2023-05-18T03:17:28;2.42;;;0.85;;
16113;SDS011;8161;-33.910;151.156;2023-05-18T03:19:55;7.85;;;1.30;;
16113;SDS011;8161;-33.910;151.156;2023-05-18T03:22:23;3.92;;;1.27;;
16113;SDS011;8161;-33.910;151.156;2023-05-18T03:24:50;3.58;;;1.00;;
16113;SDS011;8161;-33.910;151.156;2023-05-18T03:27:20;4.20;;;1.10;;
16113;SDS011;8161;-33.910;151.156;2023-05-18T03:29:51;6.78;;;1.20;;
16113;SDS011;8161;-33.910;151.156;2023-05-18T03:32:18;4.43;;;1.02;;
16113;SDS011;8161;-33.910;151.156;2023-05-18T03:34:45;3.05;;;0.77;;
16113;SDS011;8161;-33.910;151.156;2023-05-18T03:37:13;7.03;;;1.77;;
16113;SDS011;8161;-33.910;151.156;2023-05-18T03:39:40;4.23;;;1.00;;
16113;SDS011;8161;-33.910;151.156;2023-05-18T03:42:08;5.17;;;1.10;;
16113;SDS011;8161;-33.910;151.156;2023-05-18T03:44:35;6.20;;;1.13;;
16113;SDS011;8161;-33.910;151.156;2023-05-18T03:47:02;5.35;;;1.65;;
16113;SDS011;8161;-33.910;151.156;2023-05-18T03:49:32;3.70;;;0.80;;
16113;SDS011;8161;-33.910;151.156;2023-05-18T03:51:59;6.05;;;1.17;;
16113;SDS011;8161;-33.910;151.156;2023-05-18T03:54:27;4.00;;;0.90;;
16113;SDS011;8161;-33.910;151.156;2023-05-18T03:56:54;5.32;;;0.80;;
16113;SDS011;8161;-33.910;151.156;2023-05-18T03:59:21;5.22;;;0.88;;
16113;SDS011;8161;-33.910;151.156;2023-05-18T04:01:49;4.00;;;1.05;;
16113;SDS011;8161;-33.910;151.156;2023-05-18T04:04:21;5.37;;;0.97;;
16113;SDS011;8161;-33.910;151.156;2023-05-18T04:06:51;4.03;;;1.40;;
16113;SDS011;8161;-33.910;151.156;2023-05-18T04:09:19;5.30;;;0.80;;
16113;SDS011;8161;-33.910;151.156;2023-05-18T04:11:48;5.65;;;0.90;;
16113;SDS011;8161;-33.910;151.156;2023-05-18T04:14:15;5.40;;;1.15;;
16113;SDS011;8161;-33.910;151.156;2023-05-18T04:16:42;2.20;;;0.68;;
16113;SDS011;8161;-33.910;151.156;2023-05-18T04:19:10;7.67;;;1.43;;
16113;SDS011;8161;-33.910;151.156;2023-05-18T04:21:38;3.53;;;0.73;;
16113;SDS011;8161;-33.910;151.156;2023-05-18T04:24:08;3.67;;;0.85;;
16113;SDS011;8161;-33.910;151.156;2023-05-18T04:26:39;4.43;;;1.05;;
16113;SDS011;8161;-33.910;151.156;2023-05-18T04:29:07;3.28;;;0.80;;
16113;SDS011;8161;-33.910;151.156;2023-05-18T04:31:35;4.10;;;0.82;;
16113;SDS011;8161;-33.910;151.156;2023-05-18T04:34:06;3.92;;;1.13;;
16113;SDS011;8161;-33.910;151.156;2023-05-18T04:36:33;5.95;;;1.05;;
16113;SDS011;8161;-33.910;151.156;2023-05-18T04:39:04;4.68;;;1.08;;
16113;SDS011;8161;-33.910;151.156;2023-05-18T04:41:32;3.97;;;1.00;;
16113;SDS011;8161;-33.910;151.156;2023-05-18T04:44:00;2.63;;;1.17;;
16113;SDS011;8161;-33.910;151.156;2023-05-18T04:46:28;2.10;;;0.52;;
16113;SDS011;8161;-33.910;151.156;2023-05-18T04:48:55;6.20;;;1.08;;
16113;SDS011;8161;-33.910;151.156;2023-05-18T04:51:22;2.60;;;0.77;;
16113;SDS011;8161;-33.910;151.156;2023-05-18T04:53:50;3.45;;;0.85;;
16113;SDS011;8161;-33.910;151.156;2023-05-18T04:56:18;7.32;;;1.10;;
16113;SDS011;8161;-33.910;151.156;2023-05-18T04:58:47;3.85;;;1.10;;
16113;SDS011;8161;-33.910;151.156;2023-05-18T05:01:14;4.60;;;0.77;;
16113;SDS011;8161;-33.910;151.156;2023-05-18T05:03:42;4.60;;;0.73;;
16113;SDS011;8161;-33.910;151.156;2023-05-18T05:06:12;3.08;;;0.70;;
16113;SDS011;8161;-33.910;151.156;2023-05-18T05:08:40;3.88;;;0.80;;
16113;SDS011;8161;-33.910;151.156;2023-05-18T05:11:07;3.08;;;0.88;;
16113;SDS011;8161;-33.910;151.156;2023-05-18T05:13:34;2.85;;;0.85;;
16113;SDS011;8161;-33.910;151.156;2023-05-18T05:16:02;2.88;;;0.80;;
16113;SDS011;8161;-33.910;151.156;2023-05-18T05:18:29;4.20;;;0.75;;
16113;SDS011;8161;-33.910;151.156;2023-05-18T05:20:56;3.58;;;0.70;;
16113;SDS011;8161;-33.910;151.156;2023-05-18T05:23:24;7.13;;;1.00;;
16113;SDS011;8161;-33.910;151.156;2023-05-18T05:25:51;6.53;;;1.20;;
16113;SDS011;8161;-33.910;151.156;2023-05-18T05:28:18;6.20;;;1.37;;
16113;SDS011;8161;-33.910;151.156;2023-05-18T05:30:45;3.67;;;0.90;;
16113;SDS011;8161;-33.910;151.156;2023-05-18T05:33:16;4.47;;;0.93;;
16113;SDS011;8161;-33.910;151.156;2023-05-18T05:35:44;2.80;;;0.70;;
16113;SDS011;8161;-33.910;151.156;2023-05-18T05:38:11;6.53;;;1.10;;
16113;SDS011;8161;-33.910;151.156;2023-05-18T05:40:38;5.30;;;1.02;;
16113;SDS011;8161;-33.910;151.156;2023-05-18T05:43:05;6.57;;;1.20;;
16113;SDS011;8161;-33.910;151.156;2023-05-18T05:45:33;4.43;;;1.23;;
16113;SDS011;8161;-33.910;151.156;2023-05-18T05:48:03;6.13;;;1.00;;
16113;SDS011;8161;-33.910;151.156;2023-05-18T05:50:30;5.10;;;1.30;;
16113;SDS011;8161;-33.910;151.156;2023-05-18T05:52:58;3.47;;;1.20;;
16113;SDS011;8161;-33.910;151.156;2023-05-18T05:55:26;3.88;;;1.10;;
16113;SDS011;8161;-33.910;151.156;2023-05-18T05:57:53;4.03;;;0.85;;
16113;SDS011;8161;-33.910;151.156;2023-05-18T06:00:20;6.80;;;1.05;;
16113;SDS011;8161;-33.910;151.156;2023-05-18T06:02:48;5.72;;;1.10;;
16113;SDS011;8161;-33.910;151.156;2023-05-18T06:05:16;5.05;;;1.00;;
16113;SDS011;8161;-33.910;151.156;2023-05-18T06:07:43;6.43;;;0.85;;
16113;SDS011;8161;-33.910;151.156;2023-05-18T06:10:10;6.87;;;1.10;;
16113;SDS011;8161;-33.910;151.156;2023-05-18T06:12:37;6.85;;;1.10;;
16113;SDS011;8161;-33.910;151.156;2023-05-18T06:15:05;6.70;;;1.10;;
16113;SDS011;8161;-33.910;151.156;2023-05-18T06:17:33;4.07;;;0.70;;
16113;SDS011;8161;-33.910;151.156;2023-05-18T06:20:00;5.68;;;1.20;;
16113;SDS011;8161;-33.910;151.156;2023-05-18T06:22:29;5.43;;;0.93;;
16113;SDS011;8161;-33.910;151.156;2023-05-18T06:24:56;5.88;;;1.48;;
16113;SDS011;8161;-33.910;151.156;2023-05-18T06:27:23;5.75;;;1.20;;
16113;SDS011;8161;-33.910;151.156;2023-05-18T06:29:51;5.97;;;1.20;;
16113;SDS011;8161;-33.910;151.156;2023-05-18T06:32:18;5.93;;;0.90;;
16113;SDS011;8161;-33.910;151.156;2023-05-18T06:34:45;4.80;;;1.00;;
16113;SDS011;8161;-33.910;151.156;2023-05-18T06:37:16;3.67;;;0.98;;
16113;SDS011;8161;-33.910;151.156;2023-05-18T06:39:44;5.97;;;1.20;;
16113;SDS011;8161;-33.910;151.156;2023-05-18T06:42:11;7.03;;;1.13;;
16113;SDS011;8161;-33.910;151.156;2023-05-18T06:44:38;6.40;;;0.90;;
16113;SDS011;8161;-33.910;151.156;2023-05-18T06:47:06;4.57;;;1.13;;
16113;SDS011;8161;-33.910;151.156;2023-05-18T06:49:33;2.08;;;0.70;;
16113;SDS011;8161;-33.910;151.156;2023-05-18T06:52:00;5.38;;;1.17;;
16113;SDS011;8161;-33.910;151.156;2023-05-18T06:54:28;4.35;;;1.00;;
16113;SDS011;8161;-33.910;151.156;2023-05-18T06:56:55;7.18;;;1.05;;
16113;SDS011;8161;-33.910;151.156;2023-05-18T06:59:22;6.00;;;0.90;;
16113;SDS011;8161;-33.910;151.156;2023-05-18T07:01:49;3.63;;;1.00;;
16113;SDS011;8161;-33.910;151.156;2023-05-18T07:04:16;6.15;;;0.93;;
16113;SDS011;8161;-33.910;151.156;2023-05-18T07:06:46;4.18;;;0.82;;
16113;SDS011;8161;-33.910;151.156;2023-05-18T07:09:14;4.80;;;0.90;;
16113;SDS011;8161;-33.910;151.156;2023-05-18T07:11:41;5.35;;;0.90;;
16113;SDS011;8161;-33.910;151.156;2023-05-18T07:14:10;3.42;;;0.85;;
16113;SDS011;8161;-33.910;151.156;2023-05-18T07:16:37;3.83;;;0.95;;
16113;SDS011;8161;-33.910;151.156;2023-05-18T07:19:04;3.03;;;0.80;;
16113;SDS011;8161;-33.910;151.156;2023-05-18T07:21:31;4.90;;;1.13;;
16113;SDS011;8161;-33.910;151.156;2023-05-18T07:23:59;3.17;;;0.90;;
16113;SDS011;8161;-33.910;151.156;2023-05-18T07:26:26;5.85;;;0.95;;
16113;SDS011;8161;-33.910;151.156;2023-05-18T07:28:54;4.67;;;1.30;;
16113;SDS011;8161;-33.910;151.156;2023-05-18T07:31:21;7.30;;;1.30;;
16113;SDS011;8161;-33.910;151.156;2023-05-18T07:33:48;5.50;;;1.08;;
16113;SDS011;8161;-33.910;151.156;2023-05-18T07:36:15;2.75;;;0.90;;
16113;SDS011;8161;-33.910;151.156;2023-05-18T07:38:43;4.70;;;1.00;;
16113;SDS011;8161;-33.910;151.156;2023-05-18T07:41:10;5.60;;;1.38;;
16113;SDS011;8161;-33.910;151.156;2023-05-18T07:43:37;2.42;;;1.23;;
16113;SDS011;8161;-33.910;151.156;2023-05-18T07:46:04;5.13;;;1.73;;
16113;SDS011;8161;-33.910;151.156;2023-05-18T07:48:32;6.50;;;1.45;;
16113;SDS011;8161;-33.910;151.156;2023-05-18T07:50:59;3.70;;;1.20;;
16113;SDS011;8161;-33.910;151.156;2023-05-18T07:53:26;4.45;;;1.10;;
16113;SDS011;8161;-33.910;151.156;2023-05-18T07:55:53;5.40;;;1.03;;
16113;SDS011;8161;-33.910;151.156;2023-05-18T07:58:20;6.25;;;1.38;;
16113;SDS011;8161;-33.910;151.156;2023-05-18T08:00:47;4.28;;;0.80;;
16113;SDS011;8161;-33.910;151.156;2023-05-18T08:03:15;6.43;;;1.17;;
16113;SDS011;8161;-33.910;151.156;2023-05-18T08:05:43;8.18;;;1.10;;
16113;SDS011;8161;-33.910;151.156;2023-05-18T08:08:10;6.97;;;1.55;;
16113;SDS011;8161;-33.910;151.156;2023-05-18T08:10:42;9.10;;;1.48;;
16113;SDS011;8161;-33.910;151.156;2023-05-18T08:13:09;8.70;;;2.20;;
16113;SDS011;8161;-33.910;151.156;2023-05-18T08:15:37;7.75;;;1.92;;
16113;SDS011;8161;-33.910;151.156;2023-05-18T08:18:05;10.85;;;2.10;;
16113;SDS011;8161;-33.910;151.156;2023-05-18T08:20:32;9.60;;;2.45;;
16113;SDS011;8161;-33.910;151.156;2023-05-18T08:23:00;8.55;;;2.75;;
16113;SDS011;8161;-33.910;151.156;2023-05-18T08:25:27;6.45;;;1.95;;
16113;SDS011;8161;-33.910;151.156;2023-05-18T08:27:55;7.05;;;1.40;;
16113;SDS011;8161;-33.910;151.156;2023-05-18T08:30:22;8.68;;;1.58;;
16113;SDS011;8161;-33.910;151.156;2023-05-18T08:32:51;7.90;;;1.70;;
16113;SDS011;8161;-33.910;151.156;2023-05-18T08:35:18;9.53;;;1.77;;
16113;SDS011;8161;-33.910;151.156;2023-05-18T08:37:48;6.25;;;1.98;;
16113;SDS011;8161;-33.910;151.156;2023-05-18T08:40:18;10.00;;;3.20;;
16113;SDS011;8161;-33.910;151.156;2023-05-18T08:42:47;10.30;;;3.15;;
16113;SDS011;8161;-33.910;151.156;2023-05-18T08:45:31;14.43;;;5.60;;
16113;SDS011;8161;-33.910;151.156;2023-05-18T08:48:14;10.38;;;5.00;;
16113;SDS011;8161;-33.910;151.156;2023-05-18T08:50:42;14.10;;;5.55;;
16113;SDS011;8161;-33.910;151.156;2023-05-18T08:53:11;12.90;;;4.35;;
16113;SDS011;8161;-33.910;151.156;2023-05-18T08:55:39;7.82;;;3.63;;
16113;SDS011;8161;-33.910;151.156;2023-05-18T08:58:09;7.72;;;1.98;;
16113;SDS011;8161;-33.910;151.156;2023-05-18T09:00:37;7.28;;;2.63;;
16113;SDS011;8161;-33.910;151.156;2023-05-18T09:03:05;8.57;;;2.20;;
16113;SDS011;8161;-33.910;151.156;2023-05-18T09:05:33;7.30;;;2.08;;
16113;SDS011;8161;-33.910;151.156;2023-05-18T09:08:01;5.53;;;1.70;;
16113;SDS011;8161;-33.910;151.156;2023-05-18T09:10:28;5.00;;;1.70;;
16113;SDS011;8161;-33.910;151.156;2023-05-18T09:12:58;9.52;;;1.95;;
16113;SDS011;8161;-33.910;151.156;2023-05-18T09:15:28;8.15;;;1.92;;
16113;SDS011;8161;-33.910;151.156;2023-05-18T09:17:56;6.75;;;1.73;;
16113;SDS011;8161;-33.910;151.156;2023-05-18T09:20:23;9.90;;;2.38;;
16113;SDS011;8161;-33.910;151.156;2023-05-18T09:22:52;7.00;;;1.70;;
16113;SDS011;8161;-33.910;151.156;2023-05-18T09:25:20;4.95;;;1.35;;
16113;SDS011;8161;-33.910;151.156;2023-05-18T09:27:48;6.40;;;1.38;;
16113;SDS011;8161;-33.910;151.156;2023-05-18T09:30:17;9.98;;;2.35;;
16113;SDS011;8161;-33.910;151.156;2023-05-18T09:32:45;5.68;;;1.25;;
16113;SDS011;8161;-33.910;151.156;2023-05-18T09:35:15;10.55;;;2.42;;
16113;SDS011;8161;-33.910;151.156;2023-05-18T09:37:43;5.95;;;1.42;;
16113;SDS011;8161;-33.910;151.156;2023-05-18T09:40:10;6.47;;;1.40;;
16113;SDS011;8161;-33.910;151.156;2023-05-18T09:42:38;4.68;;;1.17;;
16113;SDS011;8161;-33.910;151.156;2023-05-18T09:47:41;4.20;;;0.80;;
16113;SDS011;8161;-33.910;151.156;2023-05-18T09:50:08;5.57;;;1.42;;
16113;SDS011;8161;-33.910;151.156;2023-05-18T09:52:42;8.30;;;1.98;;
16113;SDS011;8161;-33.910;151.156;2023-05-18T09:55:10;7.97;;;1.90;;
16113;SDS011;8161;-33.910;151.156;2023-05-18T09:57:41;6.47;;;1.40;;
16113;SDS011;8161;-33.910;151.156;2023-05-18T10:00:14;3.65;;;0.77;;
16113;SDS011;8161;-33.910;151.156;2023-05-18T10:02:44;5.32;;;0.82;;
16113;SDS011;8161;-33.910;151.156;2023-05-18T10:05:20;3.45;;;1.00;;
16113;SDS011;8161;-33.910;151.156;2023-05-18T10:07:52;4.75;;;1.00;;
16113;SDS011;8161;-33.910;151.156;2023-05-18T10:10:21;5.73;;;1.17;;
16113;SDS011;8161;-33.910;151.156;2023-05-18T10:12:51;6.85;;;1.15;;
16113;SDS011;8161;-33.910;151.156;2023-05-18T10:15:20;7.03;;;1.05;;
16113;SDS011;8161;-33.910;151.156;2023-05-18T10:17:49;4.27;;;0.80;;
16113;SDS011;8161;-33.910;151.156;2023-05-18T10:20:21;7.45;;;1.13;;
16113;SDS011;8161;-33.910;151.156;2023-05-18T10:22:55;4.28;;;1.00;;
16113;SDS011;8161;-33.910;151.156;2023-05-18T10:25:26;2.78;;;0.77;;
16113;SDS011;8161;-33.910;151.156;2023-05-18T10:27:59;5.28;;;1.00;;
16113;SDS011;8161;-33.910;151.156;2023-05-18T10:30:31;4.32;;;0.63;;
16113;SDS011;8161;-33.910;151.156;2023-05-18T10:32:59;4.85;;;0.88;;
16113;SDS011;8161;-33.910;151.156;2023-05-18T10:35:29;2.88;;;0.60;;
16113;SDS011;8161;-33.910;151.156;2023-05-18T10:37:56;5.05;;;0.80;;
16113;SDS011;8161;-33.910;151.156;2023-05-18T10:40:27;6.18;;;1.13;;
16113;SDS011;8161;-33.910;151.156;2023-05-18T10:42:55;5.57;;;0.75;;
16113;SDS011;8161;-33.910;151.156;2023-05-18T10:45:25;3.70;;;0.90;;
16113;SDS011;8161;-33.910;151.156;2023-05-18T10:47:53;6.60;;;1.20;;
16113;SDS011;8161;-33.910;151.156;2023-05-18T10:50:22;3.92;;;1.02;;
16113;SDS011;8161;-33.910;151.156;2023-05-18T10:52:50;4.07;;;1.20;;
16113;SDS011;8161;-33.910;151.156;2023-05-18T10:55:17;4.40;;;0.90;;
16113;SDS011;8161;-33.910;151.156;2023-05-18T10:57:47;3.60;;;0.98;;
16113;SDS011;8161;-33.910;151.156;2023-05-18T11:00:20;6.53;;;1.10;;
16113;SDS011;8161;-33.910;151.156;2023-05-18T11:02:47;6.78;;;1.27;;
16113;SDS011;8161;-33.910;151.156;2023-05-18T11:05:22;7.47;;;1.30;;
16113;SDS011;8161;-33.910;151.156;2023-05-18T11:07:50;4.88;;;1.10;;
16113;SDS011;8161;-33.910;151.156;2023-05-18T11:10:47;5.55;;;1.40;;
16113;SDS011;8161;-33.910;151.156;2023-05-18T11:13:15;7.38;;;1.60;;
16113;SDS011;8161;-33.910;151.156;2023-05-18T11:16:02;6.75;;;1.70;;
16113;SDS011;8161;-33.910;151.156;2023-05-18T11:26:46;8.70;;;2.30;;
16113;SDS011;8161;-33.910;151.156;2023-05-18T11:29:33;7.00;;;1.80;;
16113;SDS011;8161;-33.910;151.156;2023-05-18T11:32:00;7.30;;;1.43;;
16113;SDS011;8161;-33.910;151.156;2023-05-18T11:39:59;4.95;;;1.23;;
16113;SDS011;8161;-33.910;151.156;2023-05-18T11:42:30;7.65;;;1.67;;
16113;SDS011;8161;-33.910;151.156;2023-05-18T11:45:08;6.28;;;1.52;;
16113;SDS011;8161;-33.910;151.156;2023-05-18T11:47:36;5.93;;;1.52;;
16113;SDS011;8161;-33.910;151.156;2023-05-18T11:50:08;5.87;;;1.50;;
16113;SDS011;8161;-33.910;151.156;2023-05-18T11:52:46;7.43;;;1.53;;
16113;SDS011;8161;-33.910;151.156;2023-05-18T11:55:19;7.75;;;1.58;;
16113;SDS011;8161;-33.910;151.156;2023-05-18T11:57:47;6.60;;;1.77;;
16113;SDS011;8161;-33.910;151.156;2023-05-18T12:00:19;7.15;;;1.63;;
16113;SDS011;8161;-33.910;151.156;2023-05-18T12:02:49;8.77;;;1.70;;
16113;SDS011;8161;-33.910;151.156;2023-05-18T12:05:16;7.83;;;1.80;;
16113;SDS011;8161;-33.910;151.156;2023-05-18T12:07:45;7.63;;;1.73;;
16113;SDS011;8161;-33.910;151.156;2023-05-18T12:10:21;7.82;;;2.10;;
16113;SDS011;8161;-33.910;151.156;2023-05-18T12:12:52;6.85;;;1.95;;
16113;SDS011;8161;-33.910;151.156;2023-05-18T12:15:20;5.65;;;2.05;;
16113;SDS011;8161;-33.910;151.156;2023-05-18T12:17:49;4.78;;;1.65;;
16113;SDS011;8161;-33.910;151.156;2023-05-18T12:20:18;5.93;;;1.63;;
16113;SDS011;8161;-33.910;151.156;2023-05-18T12:22:51;3.97;;;1.50;;
16113;SDS011;8161;-33.910;151.156;2023-05-18T12:25:21;4.35;;;1.63;;
16113;SDS011;8161;-33.910;151.156;2023-05-18T12:27:53;5.35;;;1.98;;
16113;SDS011;8161;-33.910;151.156;2023-05-18T12:30:22;4.28;;;1.88;;
16113;SDS011;8161;-33.910;151.156;2023-05-18T12:32:51;4.68;;;1.77;;
16113;SDS011;8161;-33.910;151.156;2023-05-18T12:35:29;5.38;;;1.80;;
16113;SDS011;8161;-33.910;151.156;2023-05-18T12:37:57;4.13;;;1.88;;
16113;SDS011;8161;-33.910;151.156;2023-05-18T12:40:26;5.13;;;1.85;;
16113;SDS011;8161;-33.910;151.156;2023-05-18T12:43:04;4.63;;;1.60;;
16113;SDS011;8161;-33.910;151.156;2023-05-18T12:45:32;4.43;;;1.60;;
16113;SDS011;8161;-33.910;151.156;2023-05-18T12:48:05;3.40;;;1.60;;
16113;SDS011;8161;-33.910;151.156;2023-05-18T12:50:34;5.55;;;1.70;;
16113;SDS011;8161;-33.910;151.156;2023-05-18T12:53:03;2.72;;;1.40;;
16113;SDS011;8161;-33.910;151.156;2023-05-18T12:55:30;3.88;;;1.70;;
16113;SDS011;8161;-33.910;151.156;2023-05-18T13:00:34;5.38;;;1.58;;
16113;SDS011;8161;-33.910;151.156;2023-05-18T13:03:06;3.53;;;1.50;;
16113;SDS011;8161;-33.910;151.156;2023-05-18T13:05:37;2.90;;;1.20;;
16113;SDS011;8161;-33.910;151.156;2023-05-18T13:08:06;2.90;;;1.52;;
16113;SDS011;8161;-33.910;151.156;2023-05-18T13:10:34;5.05;;;1.30;;
16113;SDS011;8161;-33.910;151.156;2023-05-18T13:13:04;2.78;;;1.38;;
16113;SDS011;8161;-33.910;151.156;2023-05-18T13:15:32;2.72;;;1.00;;
16113;SDS011;8161;-33.910;151.156;2023-05-18T13:18:06;3.38;;;1.30;;
16113;SDS011;8161;-33.910;151.156;2023-05-18T13:20:38;4.33;;;1.37;;
16113;SDS011;8161;-33.910;151.156;2023-05-18T13:23:11;3.65;;;1.40;;
16113;SDS011;8161;-33.910;151.156;2023-05-18T13:25:40;3.60;;;1.30;;
16113;SDS011;8161;-33.910;151.156;2023-05-18T13:28:09;2.45;;;1.10;;
16113;SDS011;8161;-33.910;151.156;2023-05-18T13:30:38;2.92;;;1.13;;
16113;SDS011;8161;-33.910;151.156;2023-05-18T13:33:06;6.43;;;1.40;;
16113;SDS011;8161;-33.910;151.156;2023-05-18T13:35:38;2.05;;;1.20;;
16113;SDS011;8161;-33.910;151.156;2023-05-18T13:38:10;4.73;;;1.47;;
16113;SDS011;8161;-33.910;151.156;2023-05-18T13:40:38;3.55;;;1.13;;
16113;SDS011;8161;-33.910;151.156;2023-05-18T13:43:06;2.03;;;1.20;;
16113;SDS011;8161;-33.910;151.156;2023-05-18T13:45:34;3.15;;;1.08;;
16113;SDS011;8161;-33.910;151.156;2023-05-18T13:48:01;2.35;;;1.20;;
16113;SDS011;8161;-33.910;151.156;2023-05-18T13:50:33;1.98;;;1.00;;
16113;SDS011;8161;-33.910;151.156;2023-05-18T13:53:00;1.75;;;1.00;;
16113;SDS011;8161;-33.910;151.156;2023-05-18T13:55:27;2.88;;;1.10;;
16113;SDS011;8161;-33.910;151.156;2023-05-18T13:57:55;1.40;;;0.85;;
16113;SDS011;8161;-33.910;151.156;2023-05-18T14:00:22;2.78;;;1.05;;
16113;SDS011;8161;-33.910;151.156;2023-05-18T14:02:49;3.53;;;0.90;;
16113;SDS011;8161;-33.910;151.156;2023-05-18T14:05:17;2.58;;;0.93;;
16113;SDS011;8161;-33.910;151.156;2023-05-18T14:07:44;2.45;;;1.00;;
16113;SDS011;8161;-33.910;151.156;2023-05-18T14:10:11;4.50;;;1.05;;
16113;SDS011;8161;-33.910;151.156;2023-05-18T14:12:39;3.90;;;1.10;;
16113;SDS011;8161;-33.910;151.156;2023-05-18T14:15:11;1.95;;;1.00;;
16113;SDS011;8161;-33.910;151.156;2023-05-18T14:17:42;4.57;;;1.27;;
16113;SDS011;8161;-33.910;151.156;2023-05-18T14:20:10;2.30;;;1.08;;
16113;SDS011;8161;-33.910;151.156;2023-05-18T14:22:38;2.00;;;1.10;;
16113;SDS011;8161;-33.910;151.156;2023-05-18T14:25:08;2.30;;;1.17;;
16113;SDS011;8161;-33.910;151.156;2023-05-18T14:27:35;3.38;;;1.20;;
16113;SDS011;8161;-33.910;151.156;2023-05-18T14:30:03;3.38;;;1.40;;
16113;SDS011;8161;-33.910;151.156;2023-05-18T14:32:31;3.03;;;1.30;;
16113;SDS011;8161;-33.910;151.156;2023-05-18T14:34:58;4.15;;;1.73;;
16113;SDS011;8161;-33.910;151.156;2023-05-18T14:37:25;2.50;;;1.30;;
16113;SDS011;8161;-33.910;151.156;2023-05-18T14:39:52;3.65;;;1.10;;
16113;SDS011;8161;-33.910;151.156;2023-05-18T14:42:20;3.10;;;1.17;;
16113;SDS011;8161;-33.910;151.156;2023-05-18T14:44:47;4.18;;;1.65;;
16113;SDS011;8161;-33.910;151.156;2023-05-18T14:47:14;3.28;;;1.40;;
16113;SDS011;8161;-33.910;151.156;2023-05-18T14:49:42;3.30;;;1.10;;
16113;SDS011;8161;-33.910;151.156;2023-05-18T14:52:09;3.38;;;1.25;;
16113;SDS011;8161;-33.910;151.156;2023-05-18T14:54:37;4.97;;;1.20;;
16113;SDS011;8161;-33.910;151.156;2023-05-18T14:57:04;3.38;;;0.95;;
16113;SDS011;8161;-33.910;151.156;2023-05-18T14:59:32;1.60;;;1.10;;
16113;SDS011;8161;-33.910;151.156;2023-05-18T15:01:59;2.22;;;1.05;;